Auburn, Nebraska
Current Conditions -  °F | °C
As of 4:35 AM on Monday 20 Oct 2014 (Local Time) from KAFK Reporting Station
Clear Clear  
Wind Chill: 53°   Ceiling: Unl
Heat Index: 53°   Visibility: 10mi
Dew Point: 47°   Wind: 7mph
Humidity: 80%   Direction: 270°W
Pressure: 29.98"   Gusts: NA
Location:  40.39°N, 95.84°W
Report Text: KAFK 200935Z AUTO 27006KT 10SM CLR 12/08 A2998 RMK AO2 T01150082
Loading
Personal Weather Stations






























Interactive Weather Map
Tropical Storm Tracking
New forecast layout! Learn more

10-Day Weather Forecast

Advertisements
Track Severe Weather on mobile